Terminal Aerodrome Forecast
Issued by NWS

Home | Current Version | Previous Version | Text Only | Print | Product List | Glossary On
Versions: 1 2 3 4 5 6 7 8 9 10 11 12 13 14 15 16
000
FTUS46 KMTR 221700
TAFSJC
TAF
KSJC 221720Z 2218/2318 12006KT P6SM SKC
     FM221900 30008KT P6SM SKC
     FM222300 30015KT P6SM SKC
     FM230200 30010KT P6SM SKC
     FM230400 31005KT P6SM FEW015
     FM231000 12004KT P6SM OVC015=

USA.gov is the U.S. government's official web portal to all federal, state and local government web resources and services.